createdAt,value
2019-03-21T00:00:42.649Z,8.58
2019-03-21T00:05:41.901Z,10.98
2019-03-21T00:08:12.993Z,11.10
2019-03-21T00:11:57.948Z,11.18
2019-03-21T00:15:03.297Z,12.73
2019-03-21T00:17:42.583Z,12.00
2019-03-21T00:20:16.554Z,12.10
2019-03-21T00:25:20.836Z,10.93
2019-03-21T00:27:50.992Z,8.68
2019-03-21T00:30:22.749Z,12.50
2019-03-21T00:32:53.750Z,12.73
2019-03-21T00:37:52.991Z,12.90
2019-03-21T00:40:31.082Z,11.18
2019-03-21T00:43:04.723Z,16.25
2019-03-21T00:45:34.899Z,10.40
2019-03-21T00:48:09.847Z,10.65
2019-03-21T00:50:40.411Z,11.38
2019-03-21T00:53:10.731Z,8.18
2019-03-21T00:58:11.585Z,11.10
2019-03-21T01:00:49.853Z,9.13
2019-03-21T01:03:20.090Z,12.23
2019-03-21T01:05:50.567Z,10.58
2019-03-21T01:08:20.877Z,14.07
2019-03-21T01:10:51.895Z,11.20
2019-03-21T01:13:23.865Z,8.45
2019-03-21T01:15:54.588Z,9.18
2019-03-21T01:18:24.994Z,11.00
2019-03-21T01:20:55.415Z,9.93
2019-03-21T01:23:25.736Z,13.43
2019-03-21T01:26:17.573Z,7.78
2019-03-21T01:28:47.761Z,10.15
2019-03-21T01:31:17.980Z,9.50
2019-03-21T01:33:47.951Z,9.90
2019-03-21T01:36:20.035Z,13.00
2019-03-21T01:38:50.412Z,16.62
2019-03-21T01:41:20.861Z,10.78
2019-03-21T01:43:54.313Z,12.23
2019-03-21T01:46:25.042Z,9.68
2019-03-21T01:48:55.502Z,10.95
2019-03-21T01:51:26.022Z,8.75
2019-03-21T01:53:56.790Z,9.50
2019-03-21T01:56:28.710Z,10.80
2019-03-21T02:01:27.922Z,8.08
2019-03-21T02:03:58.017Z,11.50
2019-03-21T02:06:27.922Z,10.32
2019-03-21T02:08:58.515Z,11.15
2019-03-21T02:11:28.925Z,10.25
2019-03-21T02:13:59.002Z,8.28
2019-03-21T02:16:28.961Z,9.85
2019-03-21T02:18:58.958Z,9.83
2019-03-21T02:21:30.420Z,9.43
2019-03-21T02:24:00.798Z,12.13
2019-03-21T02:26:30.944Z,12.20
2019-03-21T02:29:00.938Z,11.20
2019-03-21T02:31:31.442Z,10.13
2019-03-21T02:34:01.912Z,11.00
2019-03-21T02:36:32.929Z,11.18
2019-03-21T02:39:04.744Z,12.88
2019-03-21T02:41:37.024Z,11.88
2019-03-21T02:44:06.959Z,13.30
2019-03-21T02:46:37.554Z,12.73
2019-03-21T02:49:08.039Z,11.08
2019-03-21T02:51:38.793Z,11.15
2019-03-21T02:56:39.319Z,9.68
2019-03-21T02:59:10.286Z,11.97
2019-03-21T03:01:41.888Z,11.85
2019-03-21T03:04:12.042Z,13.28
2019-03-21T03:06:42.802Z,12.78
2019-03-21T03:11:43.013Z,11.00
2019-03-21T03:14:13.460Z,12.45
2019-03-21T03:19:13.759Z,13.53
2019-03-21T03:24:13.497Z,17.25
2019-03-21T03:26:44.052Z,13.90
2019-03-21T03:29:14.739Z,12.95
2019-03-21T03:34:14.910Z,16.30
2019-03-21T03:36:45.856Z,13.83
2019-03-21T03:39:16.001Z,11.33
2019-03-21T03:41:46.510Z,13.45
2019-03-21T03:44:17.297Z,11.30
2019-03-21T03:46:48.051Z,13.60
2019-03-21T03:49:19.966Z,9.83
2019-03-21T03:51:50.937Z,12.55
2019-03-21T03:54:21.909Z,14.83
2019-03-21T03:56:52.127Z,13.13
2019-03-21T03:59:24.020Z,15.68
2019-03-21T04:01:54.427Z,12.75
2019-03-21T04:04:24.985Z,11.78
2019-03-21T04:06:56.097Z,14.58
2019-03-21T04:09:27.008Z,11.70
2019-03-21T04:11:58.119Z,11.15
2019-03-21T04:14:28.911Z,13.22
2019-03-21T04:16:59.615Z,16.37
2019-03-21T04:19:29.977Z,14.13
2019-03-21T04:22:00.954Z,13.28
2019-03-21T04:24:33.307Z,15.28
2019-03-21T04:27:04.532Z,14.68
2019-03-21T04:29:35.521Z,13.30
2019-03-21T04:32:06.039Z,13.13
2019-03-21T04:34:36.829Z,13.55
2019-03-21T04:37:07.591Z,16.30
2019-03-21T04:39:38.145Z,15.88
2019-03-21T04:42:09.073Z,12.45
2019-03-21T04:44:40.182Z,14.85
2019-03-21T04:47:10.713Z,13.50
2019-03-21T04:52:10.840Z,14.13
2019-03-21T04:54:41.589Z,13.08
2019-03-21T04:59:41.021Z,12.55
2019-03-21T05:02:11.801Z,14.83
2019-03-21T05:04:42.467Z,12.03
2019-03-21T05:07:13.089Z,11.80
2019-03-21T05:09:44.120Z,12.98
2019-03-21T05:12:14.758Z,16.95
2019-03-21T05:17:14.778Z,13.00
2019-03-21T05:19:45.793Z,12.03
2019-03-21T05:22:16.597Z,14.58
2019-03-21T05:27:18.460Z,14.45
2019-03-21T05:29:49.389Z,11.63
2019-03-21T05:32:20.300Z,11.00
2019-03-21T05:34:51.096Z,12.00
2019-03-21T05:37:22.041Z,13.68
2019-03-21T05:39:52.938Z,12.70
2019-03-21T05:42:25.692Z,17.30
2019-03-21T05:47:26.417Z,17.27
2019-03-21T05:49:57.294Z,16.05
2019-03-21T05:52:28.297Z,13.10
2019-03-21T05:54:58.918Z,14.38
2019-03-21T05:57:32.306Z,16.05
2019-03-21T06:00:05.281Z,14.85
2019-03-21T06:02:36.087Z,15.30
2019-03-21T06:05:07.298Z,14.80
2019-03-21T06:08:08.803Z,15.58
2019-03-21T06:10:39.501Z,12.03
2019-03-21T06:13:10.699Z,16.62
2019-03-21T06:15:41.821Z,16.45
2019-03-21T06:19:19.771Z,16.20
2019-03-21T06:22:46.991Z,19.90
2019-03-21T06:26:26.071Z,19.25
2019-03-21T06:28:56.930Z,21.85
2019-03-21T06:31:28.155Z,17.42
2019-03-21T06:33:59.843Z,18.85
2019-03-21T06:36:29.997Z,21.55
2019-03-21T06:39:00.527Z,22.02
2019-03-21T06:41:33.344Z,19.75
2019-03-21T06:44:04.115Z,25.95
2019-03-21T06:46:35.101Z,20.30
2019-03-21T06:49:06.105Z,21.68
2019-03-21T06:51:39.143Z,22.50
2019-03-21T06:54:40.679Z,21.07
2019-03-21T06:57:56.311Z,23.35
2019-03-21T07:01:05.044Z,28.92
2019-03-21T07:04:06.992Z,23.25
2019-03-21T07:08:21.214Z,24.85
2019-03-21T07:11:39.357Z,26.87
2019-03-21T07:14:26.953Z,21.37
2019-03-21T07:17:00.572Z,25.30
2019-03-21T07:19:30.963Z,23.07
2019-03-21T07:22:01.555Z,18.00
2019-03-21T07:24:32.016Z,16.87
2019-03-21T07:27:02.921Z,17.05
2019-03-21T07:29:33.108Z,20.50
2019-03-21T07:32:03.547Z,15.80
2019-03-21T07:34:34.192Z,20.62
2019-03-21T07:37:04.570Z,22.35
2019-03-21T07:39:35.294Z,14.90
2019-03-21T07:42:06.307Z,18.95
2019-03-21T07:44:36.897Z,19.55
2019-03-21T07:47:12.773Z,17.20
2019-03-21T07:49:39.556Z,15.65
2019-03-21T07:52:10.025Z,18.50
2019-03-21T07:54:40.553Z,19.90
2019-03-21T07:57:10.941Z,22.67
2019-03-21T07:59:40.958Z,16.57
2019-03-21T08:02:12.211Z,17.60
2019-03-21T08:04:42.711Z,20.90
2019-03-21T08:09:50.766Z,23.00
2019-03-21T08:12:20.926Z,18.40
2019-03-21T08:14:51.403Z,22.37
2019-03-21T08:17:21.924Z,14.93
2019-03-21T08:19:51.977Z,16.02
2019-03-21T08:22:22.489Z,18.98
2019-03-21T08:24:52.767Z,17.17
2019-03-21T08:27:22.902Z,15.95
2019-03-21T08:29:53.057Z,16.15
2019-03-21T08:32:23.914Z,20.75
2019-03-21T08:34:53.996Z,14.43
2019-03-21T08:37:24.426Z,15.28
2019-03-21T08:39:54.700Z,17.35
2019-03-21T08:42:24.987Z,15.08
2019-03-21T08:44:55.657Z,17.57
2019-03-21T08:49:56.235Z,15.58
2019-03-21T08:52:27.033Z,12.40
2019-03-21T08:54:57.590Z,13.22
2019-03-21T08:57:28.062Z,13.83
2019-03-21T09:00:00.851Z,13.75
2019-03-21T09:02:32.044Z,12.13
2019-03-21T09:05:03.013Z,13.08
2019-03-21T09:07:33.757Z,12.15
2019-03-21T09:10:04.957Z,12.18
2019-03-21T09:12:35.963Z,12.33
2019-03-21T09:15:08.599Z,11.97
2019-03-21T09:17:38.911Z,10.63
2019-03-21T09:20:11.102Z,11.63
2019-03-21T09:22:41.679Z,14.73
2019-03-21T09:25:11.953Z,16.65
2019-03-21T09:27:42.065Z,11.95
2019-03-21T09:30:16.014Z,13.90
2019-03-21T09:32:47.959Z,10.13
2019-03-21T09:38:07.309Z,11.88
2019-03-21T09:40:37.989Z,15.40
2019-03-21T09:43:08.597Z,12.53
2019-03-21T09:45:39.049Z,10.30
2019-03-21T09:48:10.108Z,15.15
2019-03-21T09:50:40.927Z,14.50
2019-03-21T09:53:11.673Z,12.43
2019-03-21T09:55:42.302Z,10.23
2019-03-21T09:58:13.439Z,11.83
2019-03-21T10:00:44.154Z,9.50
2019-03-21T10:03:14.786Z,9.68
2019-03-21T10:05:44.988Z,10.20
2019-03-21T10:08:15.516Z,10.45
2019-03-21T10:10:45.785Z,10.48
2019-03-21T10:13:15.959Z,7.90
2019-03-21T10:15:46.526Z,8.60
2019-03-21T10:18:16.737Z,7.78
2019-03-21T10:23:16.005Z,9.68
2019-03-21T10:25:46.435Z,7.37
2019-03-21T10:28:17.862Z,6.70
2019-03-21T10:30:49.294Z,7.25
2019-03-21T10:33:19.612Z,8.05
2019-03-21T10:35:51.480Z,7.95
2019-03-21T10:38:23.522Z,6.53
2019-03-21T10:40:54.734Z,9.28
2019-03-21T10:45:55.993Z,7.87
2019-03-21T10:48:27.495Z,8.88
2019-03-21T10:50:58.438Z,9.35
2019-03-21T10:53:28.737Z,10.75
2019-03-21T10:58:27.876Z,7.97
2019-03-21T11:00:58.434Z,7.17
2019-03-21T11:03:28.739Z,11.05
2019-03-21T11:08:27.911Z,9.08
2019-03-21T11:10:58.734Z,8.45
2019-03-21T11:15:58.099Z,8.10
2019-03-21T11:18:36.060Z,10.90
2019-03-21T11:21:00.730Z,6.78
2019-03-21T11:25:59.995Z,6.00
2019-03-21T11:28:30.050Z,7.17
2019-03-21T11:31:01.780Z,7.87
2019-03-21T11:33:32.298Z,8.43
2019-03-21T11:36:02.531Z,7.47
2019-03-21T11:38:32.882Z,8.90
2019-03-21T11:41:03.061Z,7.47
2019-03-21T11:43:33.721Z,9.33
2019-03-21T11:48:32.957Z,8.20
2019-03-21T11:51:02.969Z,6.72
2019-03-21T11:53:33.222Z,9.15
2019-03-21T11:56:03.603Z,5.53
2019-03-21T11:58:36.986Z,9.00
2019-03-21T12:01:07.448Z,8.23
2019-03-21T12:03:37.947Z,5.47
2019-03-21T12:06:07.959Z,6.15
2019-03-21T12:08:39.587Z,5.62
2019-03-21T12:11:09.937Z,7.95
2019-03-21T12:13:40.257Z,5.45
2019-03-21T12:16:10.962Z,6.40
2019-03-21T12:18:41.026Z,7.58
2019-03-21T12:21:11.942Z,6.95
2019-03-21T12:23:42.121Z,8.00
2019-03-21T12:26:12.539Z,8.13
2019-03-21T12:28:42.906Z,7.05
2019-03-21T12:31:13.302Z,7.15
2019-03-21T12:33:43.659Z,6.75
2019-03-21T12:38:42.975Z,7.65
2019-03-21T12:41:13.293Z,7.03
2019-03-21T12:43:43.902Z,5.67
2019-03-21T12:46:13.974Z,6.20
2019-03-21T12:48:44.040Z,5.25
2019-03-21T12:51:14.156Z,7.20
2019-03-21T12:53:44.827Z,7.58
2019-03-21T12:56:14.923Z,13.85
2019-03-21T12:58:45.060Z,7.15
2019-03-21T13:01:15.628Z,6.15
2019-03-21T13:06:14.882Z,5.75
2019-03-21T13:08:44.991Z,7.62
2019-03-21T13:11:15.306Z,9.05
2019-03-21T13:13:45.579Z,7.65
2019-03-21T13:16:16.294Z,5.72
2019-03-21T13:18:46.562Z,8.40
2019-03-21T13:21:17.165Z,7.58
2019-03-21T13:23:47.689Z,8.03
2019-03-21T13:28:47.409Z,7.28
2019-03-21T13:31:18.180Z,8.60
2019-03-21T13:33:48.985Z,7.00
2019-03-21T13:36:20.024Z,8.25
2019-03-21T13:38:50.445Z,7.20
2019-03-21T13:41:20.919Z,8.65
2019-03-21T13:43:51.039Z,9.18
2019-03-21T13:46:21.554Z,8.38
2019-03-21T13:48:51.935Z,10.98
2019-03-21T13:51:22.009Z,8.55
2019-03-21T13:53:52.037Z,9.78
2019-03-21T13:56:22.571Z,7.60
2019-03-21T13:58:53.210Z,9.48
2019-03-21T14:01:23.585Z,9.20
2019-03-21T14:03:53.988Z,8.50
2019-03-21T14:06:24.053Z,7.33
2019-03-21T14:08:54.559Z,8.75
2019-03-21T14:11:32.320Z,8.25
2019-03-21T14:14:02.575Z,8.50
2019-03-21T14:16:40.933Z,7.85
2019-03-21T14:19:36.610Z,7.10
2019-03-21T14:22:09.123Z,8.18
2019-03-21T14:24:40.485Z,9.40
2019-03-21T14:27:10.929Z,6.70
2019-03-21T14:29:41.068Z,7.90
2019-03-21T14:32:11.453Z,6.95
2019-03-21T14:34:41.948Z,8.20
2019-03-21T14:37:12.105Z,9.35
2019-03-21T14:39:44.609Z,7.30
2019-03-21T14:42:15.012Z,8.30
2019-03-21T14:44:45.557Z,7.90
2019-03-21T14:47:15.870Z,6.42
2019-03-21T14:49:46.034Z,6.87
2019-03-21T14:52:16.620Z,7.90
2019-03-21T14:54:52.207Z,8.70
2019-03-21T14:57:32.982Z,6.22
2019-03-21T15:00:03.957Z,7.30
2019-03-21T15:02:35.932Z,7.12
2019-03-21T15:05:07.770Z,7.28
2019-03-21T15:10:09.489Z,6.12
2019-03-21T15:12:40.060Z,8.48
2019-03-21T15:15:11.623Z,6.95
2019-03-21T15:17:41.975Z,5.90
2019-03-21T15:20:14.505Z,6.03
2019-03-21T15:22:44.965Z,8.03
2019-03-21T15:25:15.723Z,5.60
2019-03-21T15:30:18.498Z,8.18
2019-03-21T15:35:20.793Z,5.97
2019-03-21T15:37:51.136Z,6.08
2019-03-21T15:40:22.432Z,8.58
2019-03-21T15:42:53.207Z,7.95
2019-03-21T15:45:27.637Z,7.03
2019-03-21T15:48:00.347Z,6.25
2019-03-21T15:50:40.876Z,5.43
2019-03-21T15:53:12.516Z,6.08
2019-03-21T15:58:14.332Z,7.83
2019-03-21T16:00:46.474Z,5.55
2019-03-21T16:05:49.436Z,5.47
2019-03-21T16:08:20.571Z,8.08
2019-03-21T16:10:51.121Z,5.50
2019-03-21T16:13:22.778Z,7.05
2019-03-21T16:15:54.852Z,4.42
2019-03-21T16:18:27.676Z,5.17
2019-03-21T16:23:28.061Z,5.90
2019-03-21T16:25:59.489Z,7.03
2019-03-21T16:28:30.026Z,8.08
2019-03-21T16:31:01.265Z,5.80
2019-03-21T16:33:32.402Z,7.12
2019-03-21T16:36:03.522Z,7.10
2019-03-21T16:38:34.292Z,5.08
2019-03-21T16:41:05.553Z,6.55
2019-03-21T16:46:06.345Z,5.80
2019-03-21T16:48:37.292Z,5.15
2019-03-21T16:51:08.300Z,5.87
2019-03-21T16:53:39.299Z,6.10
2019-03-21T16:56:10.457Z,6.15
2019-03-21T16:58:44.065Z,7.05
2019-03-21T17:01:14.742Z,7.05
2019-03-21T17:06:15.284Z,8.10
2019-03-21T17:08:45.919Z,7.83
2019-03-21T17:11:22.596Z,8.78
2019-03-21T17:13:52.936Z,7.22
2019-03-21T17:16:23.616Z,7.37
2019-03-21T17:18:54.043Z,9.05
2019-03-21T17:21:25.594Z,6.70
2019-03-21T17:23:56.021Z,7.17
2019-03-21T17:26:26.599Z,9.78
2019-03-21T17:31:26.396Z,5.78
2019-03-21T17:33:56.857Z,5.60
2019-03-21T17:36:28.289Z,7.53
2019-03-21T17:38:58.722Z,7.95
2019-03-21T17:43:58.091Z,5.53
2019-03-21T17:46:28.795Z,6.95
2019-03-21T17:51:28.672Z,6.90
2019-03-21T17:56:29.025Z,8.30
2019-03-21T17:58:59.648Z,7.87
2019-03-21T18:01:29.944Z,7.95
2019-03-21T18:04:00.956Z,9.90
2019-03-21T18:06:34.146Z,7.40
2019-03-21T18:09:08.156Z,8.80
2019-03-21T18:11:40.409Z,7.33
2019-03-21T18:14:11.040Z,8.20
2019-03-21T18:16:41.853Z,7.05
2019-03-21T18:19:12.161Z,7.87
2019-03-21T18:21:42.747Z,9.30
2019-03-21T18:24:13.491Z,7.83
2019-03-21T18:26:43.902Z,9.48
2019-03-21T18:29:14.309Z,9.05
2019-03-21T18:31:46.053Z,9.05
2019-03-21T18:34:16.795Z,8.83
2019-03-21T18:36:47.292Z,10.28
2019-03-21T18:39:18.064Z,10.00
2019-03-21T18:41:48.562Z,10.78
2019-03-21T18:44:18.968Z,11.20
2019-03-21T18:46:49.583Z,11.15
2019-03-21T18:51:50.599Z,8.03
2019-03-21T18:54:21.348Z,8.20
2019-03-21T18:56:52.102Z,12.58
2019-03-21T18:59:23.070Z,7.60
2019-03-21T19:01:58.347Z,10.08
2019-03-21T19:04:26.019Z,8.20
2019-03-21T19:06:56.656Z,10.08
2019-03-21T19:11:56.796Z,9.90
2019-03-21T19:14:27.038Z,10.20
2019-03-21T19:16:57.769Z,9.53
2019-03-21T19:19:29.121Z,9.10
2019-03-21T19:22:00.613Z,11.15
2019-03-21T19:24:31.131Z,9.40
2019-03-21T19:27:02.468Z,10.23
2019-03-21T19:29:32.986Z,8.88
2019-03-21T19:32:04.077Z,8.20
2019-03-21T19:34:37.724Z,9.85
2019-03-21T19:37:08.273Z,8.18
2019-03-21T19:39:39.121Z,8.48
2019-03-21T19:42:10.046Z,9.18
2019-03-21T19:44:47.990Z,7.90
2019-03-21T19:47:28.873Z,9.03
2019-03-21T19:50:01.539Z,7.80
2019-03-21T19:55:04.427Z,10.65
2019-03-21T20:00:14.346Z,8.55
2019-03-21T20:02:46.601Z,9.40
2019-03-21T20:05:21.005Z,9.50
2019-03-21T20:07:52.137Z,12.50
2019-03-21T20:10:23.054Z,8.90
2019-03-21T20:12:54.303Z,9.30
2019-03-21T20:15:28.627Z,8.65
2019-03-21T20:18:03.923Z,9.13
2019-03-21T20:20:36.377Z,10.93
2019-03-21T20:23:08.777Z,9.98
2019-03-21T20:25:43.215Z,10.23
2019-03-21T20:28:16.302Z,10.18
2019-03-21T20:30:48.111Z,9.80
2019-03-21T20:33:19.456Z,9.88
2019-03-21T20:35:51.877Z,11.18
2019-03-21T20:38:25.315Z,10.10
2019-03-21T20:40:56.066Z,9.83
2019-03-21T20:43:26.765Z,10.60
2019-03-21T20:45:58.194Z,9.85
2019-03-21T20:48:31.635Z,7.65
2019-03-21T20:51:07.353Z,8.60
2019-03-21T20:53:38.081Z,8.80
2019-03-21T20:56:10.610Z,12.10
2019-03-21T20:58:41.601Z,10.35
2019-03-21T21:01:12.171Z,11.93
2019-03-21T21:03:43.956Z,11.73
2019-03-21T21:06:16.145Z,9.83
2019-03-21T21:08:46.971Z,12.45
2019-03-21T21:11:17.406Z,11.53
2019-03-21T21:13:47.888Z,9.03
2019-03-21T21:16:18.138Z,11.90
2019-03-21T21:18:48.677Z,9.88
2019-03-21T21:23:48.897Z,8.80
2019-03-21T21:26:19.126Z,9.13
2019-03-21T21:28:49.581Z,9.25
2019-03-21T21:31:20.082Z,9.75
2019-03-21T21:33:50.752Z,9.25
2019-03-21T21:36:22.320Z,8.20
2019-03-21T21:38:53.517Z,9.53
2019-03-21T21:41:28.982Z,7.12
2019-03-21T21:44:02.029Z,8.53
2019-03-21T21:46:32.906Z,9.40
2019-03-21T21:49:03.320Z,11.90
2019-03-21T21:51:33.775Z,8.73
2019-03-21T21:54:04.456Z,9.05
2019-03-21T21:56:34.942Z,9.23
2019-03-21T21:59:05.727Z,9.78
2019-03-21T22:01:36.168Z,11.55
2019-03-21T22:04:06.778Z,9.35
2019-03-21T22:06:37.145Z,8.60
2019-03-21T22:09:09.902Z,10.85
2019-03-21T22:11:40.384Z,9.98
2019-03-21T22:14:11.067Z,10.05
2019-03-21T22:16:41.588Z,11.00
2019-03-21T22:19:11.966Z,11.35
2019-03-21T22:21:43.471Z,10.05
2019-03-21T22:24:13.769Z,9.13
2019-03-21T22:26:48.022Z,9.40
2019-03-21T22:29:18.787Z,12.07
2019-03-21T22:31:50.101Z,9.55
2019-03-21T22:34:26.116Z,11.63
2019-03-21T22:36:56.597Z,8.63
2019-03-21T22:39:29.680Z,12.43
2019-03-21T22:42:01.642Z,10.30
2019-03-21T22:47:14.545Z,14.45
2019-03-21T22:49:45.019Z,9.33
2019-03-21T22:52:15.458Z,10.05
2019-03-21T22:54:45.964Z,12.45
2019-03-21T22:57:16.720Z,13.30
2019-03-21T23:02:16.953Z,13.45
2019-03-21T23:04:47.858Z,15.90
2019-03-21T23:07:18.614Z,15.13
2019-03-21T23:09:48.891Z,14.33
2019-03-21T23:12:19.076Z,15.75
2019-03-21T23:14:50.054Z,15.15
2019-03-21T23:17:25.456Z,12.43
2019-03-21T23:19:56.164Z,15.80
2019-03-21T23:22:28.108Z,16.32
2019-03-21T23:24:58.898Z,14.58
2019-03-21T23:27:29.466Z,14.43
2019-03-21T23:30:00.027Z,11.97
2019-03-21T23:32:30.592Z,15.23
2019-03-21T23:35:01.200Z,15.35
2019-03-21T23:37:31.720Z,13.05
2019-03-21T23:42:46.094Z,12.03
2019-03-21T23:45:19.826Z,12.70
2019-03-21T23:47:50.000Z,11.63
2019-03-21T23:50:20.112Z,12.75
2019-03-21T23:52:51.975Z,14.05
2019-03-21T23:55:22.594Z,14.13
2019-03-21T23:57:53.058Z,12.75
